Time;durP1;ratioP1;P1;durP2;ratioP2;P2;SDS_P1;SDS_P2;PMS_P1;PMS_P2;Temp;Humidity;BMP_temperature;BMP_pressure;BME280_temperature;BME280_humidity;BME280_pressure;Samples;Min_cycle;Max_cycle;Signal;HPM_P1;HPM_P2
2023/03/29 00:00:13;;;;;;;2.10;1.40;;;11.50;35.30;;;;;;5004860;28;20436;-69
2023/03/29 00:02:46;;;;;;;3.50;2.03;;;11.10;34.20;;;;;;5008322;28;20498;-69
2023/03/29 00:05:14;;;;;;;1.90;1.20;;;10.70;36.00;;;;;;5009826;28;20431;-68
2023/03/29 00:07:40;;;;;;;1.93;1.20;;;10.00;38.40;;;;;;5010321;28;20447;-68
2023/03/29 00:10:08;;;;;;;2.00;1.30;;;9.90;40.10;;;;;;5009440;28;20487;-69
2023/03/29 00:12:35;;;;;;;1.90;1.20;;;9.90;39.90;;;;;;5010768;28;20522;-70
2023/03/29 00:15:01;;;;;;;1.90;1.20;;;9.70;41.30;;;;;;5011620;28;20400;-69
2023/03/29 00:17:27;;;;;;;2.00;1.20;;;9.60;41.70;;;;;;5011258;28;20408;-68
2023/03/29 00:19:52;;;;;;;1.90;1.20;;;9.90;40.60;;;;;;5011331;28;20420;-70
2023/03/29 00:22:18;;;;;;;1.90;1.10;;;10.30;39.10;;;;;;5010006;28;20456;-68
2023/03/29 00:24:46;;;;;;;1.90;1.20;;;10.10;38.30;;;;;;5011238;28;20183;-69
2023/03/29 00:27:12;;;;;;;2.00;1.30;;;10.50;38.60;;;;;;5010795;28;20267;-68
2023/03/29 00:29:38;;;;;;;1.90;1.20;;;10.80;36.80;;;;;;5011159;28;20829;-68
2023/03/29 00:32:04;;;;;;;2.00;1.23;;;11.00;36.60;;;;;;5008634;28;20502;-68
2023/03/29 00:34:29;;;;;;;1.90;1.20;;;11.20;36.00;;;;;;5008766;28;20188;-70
2023/03/29 00:36:56;;;;;;;1.90;1.10;;;11.40;36.30;;;;;;5010240;28;20436;-70
2023/03/29 00:39:23;;;;;;;2.00;1.30;;;11.40;35.40;;;;;;5010468;28;20180;-68
2023/03/29 00:41:49;;;;;;;1.90;1.20;;;11.00;35.30;;;;;;5008103;28;20467;-69
2023/03/29 00:44:52;;;;;;;2.00;1.20;;;10.60;36.70;;;;;;5005940;28;20213;-68
2023/03/29 00:47:23;;;;;;;2.00;1.30;;;10.50;36.80;;;;;;5009076;28;20459;-68
2023/03/29 00:49:51;;;;;;;1.90;1.20;;;10.30;36.90;;;;;;5009390;28;20955;-68
2023/03/29 00:52:20;;;;;;;2.00;1.30;;;10.00;37.40;;;;;;5010089;28;20483;-68
2023/03/29 00:54:50;;;;;;;2.10;1.30;;;9.80;39.60;;;;;;5009721;28;20775;-70
2023/03/29 00:57:17;;;;;;;1.93;1.20;;;9.80;39.60;;;;;;5006031;28;20428;-69
2023/03/29 00:59:45;;;;;;;1.90;1.20;;;9.90;38.90;;;;;;5011267;28;20432;-68
2023/03/29 01:02:12;;;;;;;2.10;1.47;;;10.20;36.80;;;;;;5010773;28;20450;-68
2023/03/29 01:04:58;;;;;;;1.90;1.20;;;9.90;38.70;;;;;;5011159;28;20510;-68
2023/03/29 01:07:49;;;;;;;1.90;1.10;;;9.80;38.30;;;;;;5009091;28;20623;-69
2023/03/29 01:10:55;;;;;;;2.10;1.20;;;9.90;38.30;;;;;;5013904;28;20539;-69
2023/03/29 01:13:32;;;;;;;1.90;1.10;;;10.10;36.40;;;;;;4985455;28;20441;-68
2023/03/29 01:15:58;;;;;;;1.80;1.10;;;9.90;37.60;;;;;;4973275;28;20401;-68
2023/03/29 01:18:24;;;;;;;1.90;1.10;;;9.90;37.80;;;;;;4980107;28;20515;-70
2023/03/29 01:21:08;;;;;;;2.07;1.30;;;9.70;38.90;;;;;;4985351;28;20539;-69
2023/03/29 01:23:49;;;;;;;1.90;1.10;;;10.20;34.80;;;;;;4992120;28;20257;-68
2023/03/29 01:26:33;;;;;;;2.20;1.40;;;10.30;35.50;;;;;;4992410;28;20470;-68
2023/03/29 01:29:16;;;;;;;2.10;1.33;;;10.50;33.30;;;;;;4983410;28;20461;-68
2023/03/29 01:31:48;;;;;;;2.63;1.33;;;10.40;32.70;;;;;;4983578;28;20220;-69
2023/03/29 01:34:24;;;;;;;1.90;1.10;;;10.90;31.20;;;;;;4983803;28;20469;-68
2023/03/29 01:37:05;;;;;;;1.90;1.10;;;11.00;31.10;;;;;;4980706;28;20417;-70
2023/03/29 01:39:33;;;;;;;2.33;1.30;;;10.40;31.50;;;;;;4979661;28;20516;-68
2023/03/29 01:42:21;;;;;;;1.80;1.10;;;10.50;32.00;;;;;;4971404;28;20465;-68
2023/03/29 01:45:18;;;;;;;2.00;1.30;;;10.80;30.00;;;;;;4971880;28;20549;-68
2023/03/29 01:48:02;;;;;;;1.83;1.07;;;10.70;30.60;;;;;;4999166;28;20464;-69
2023/03/29 01:50:48;;;;;;;2.10;1.40;;;10.60;30.60;;;;;;5010308;28;20439;-68
2023/03/29 01:53:18;;;;;;;2.00;1.20;;;10.20;32.10;;;;;;5012438;28;20455;-69
2023/03/29 01:55:51;;;;;;;2.00;1.30;;;10.50;29.70;;;;;;5003711;28;20505;-69
2023/03/29 01:58:19;;;;;;;1.90;1.10;;;10.80;30.30;;;;;;5011743;28;20440;-68
2023/03/29 02:00:46;;;;;;;2.00;1.30;;;10.50;30.70;;;;;;5012021;28;20530;-68
2023/03/29 02:03:16;;;;;;;1.90;1.20;;;10.60;30.00;;;;;;5011170;28;20450;-69
2023/03/29 02:05:43;;;;;;;2.50;1.30;;;11.10;28.10;;;;;;5009810;28;20571;-69
2023/03/29 02:08:11;;;;;;;1.90;1.20;;;11.70;27.30;;;;;;5011726;28;20550;-70
2023/03/29 02:10:37;;;;;;;2.03;1.30;;;11.30;28.30;;;;;;5010763;28;20432;-68
2023/03/29 02:13:04;;;;;;;1.97;1.20;;;11.40;27.20;;;;;;5011350;28;20455;-68
2023/03/29 02:15:29;;;;;;;2.67;1.73;;;11.40;27.20;;;;;;5013243;28;20415;-69
2023/03/29 02:17:55;;;;;;;1.90;1.20;;;11.40;28.20;;;;;;5012609;28;20430;-69
2023/03/29 02:20:31;;;;;;;1.90;1.20;;;11.50;28.30;;;;;;5004287;28;20228;-68
2023/03/29 02:23:21;;;;;;;1.80;1.20;;;11.50;28.10;;;;;;5012509;28;20197;-68
2023/03/29 02:25:49;;;;;;;1.90;1.13;;;11.10;27.80;;;;;;5013272;28;20392;-68
2023/03/29 02:28:16;;;;;;;1.80;1.10;;;10.70;28.30;;;;;;5013009;28;20455;-69
2023/03/29 02:31:08;;;;;;;2.40;1.60;;;10.70;29.00;;;;;;5006562;28;20442;-68
2023/03/29 02:34:06;;;;;;;2.93;1.67;;;11.00;29.60;;;;;;5010466;28;20796;-68
2023/03/29 02:36:57;;;;;;;2.10;1.30;;;11.30;29.20;;;;;;5013088;28;21136;-69
2023/03/29 02:39:25;;;;;;;2.10;1.43;;;11.30;27.30;;;;;;5015436;28;20431;-69
2023/03/29 02:41:52;;;;;;;2.10;1.33;;;11.20;26.80;;;;;;5016823;28;20858;-69
2023/03/29 02:44:22;;;;;;;2.20;1.40;;;11.60;25.90;;;;;;5008790;28;20475;-67
2023/03/29 02:46:56;;;;;;;2.10;1.40;;;11.80;25.40;;;;;;5008131;28;20436;-68
2023/03/29 02:49:23;;;;;;;2.00;1.20;;;11.90;25.60;;;;;;5011193;28;20444;-68
2023/03/29 02:51:52;;;;;;;2.03;1.30;;;12.50;24.50;;;;;;5012472;28;20428;-69
2023/03/29 02:54:21;;;;;;;1.93;1.20;;;12.60;25.40;;;;;;5011200;28;20436;-69
2023/03/29 02:56:56;;;;;;;2.03;1.30;;;12.30;27.00;;;;;;5027397;22;20526;-71
2023/03/29 02:59:21;;;;;;;1.90;1.17;;;12.10;27.10;;;;;;4966401;28;20444;-68
2023/03/29 03:01:48;;;;;;;2.10;1.30;;;12.20;27.00;;;;;;4979995;28;20529;-68
2023/03/29 03:04:14;;;;;;;1.90;1.20;;;12.20;26.70;;;;;;4977723;28;20257;-69
2023/03/29 03:06:40;;;;;;;2.00;1.20;;;12.60;25.70;;;;;;4977843;28;20433;-68
2023/03/29 03:09:06;;;;;;;2.00;1.20;;;12.70;27.00;;;;;;4948539;28;20772;-69
2023/03/29 03:11:32;;;;;;;1.90;1.10;;;12.80;28.10;;;;;;4955385;28;20442;-68
2023/03/29 03:13:59;;;;;;;1.93;1.20;;;12.90;27.60;;;;;;4961820;28;20847;-68
2023/03/29 03:16:25;;;;;;;1.90;1.10;;;12.60;27.20;;;;;;4959977;28;20522;-68
2023/03/29 03:18:52;;;;;;;1.80;1.00;;;12.60;27.30;;;;;;4960579;28;20450;-69
2023/03/29 03:21:18;;;;;;;1.87;1.10;;;12.40;27.20;;;;;;4953897;29;20410;-69
2023/03/29 03:23:45;;;;;;;2.03;1.20;;;12.80;28.20;;;;;;4952516;29;20418;-68
2023/03/29 03:26:12;;;;;;;2.00;1.30;;;13.00;27.50;;;;;;4952579;29;20419;-68
2023/03/29 03:28:37;;;;;;;2.07;1.23;;;12.80;27.60;;;;;;4949853;28;20474;-69
2023/03/29 03:31:04;;;;;;;1.90;1.10;;;12.90;27.20;;;;;;4952198;29;20426;-66
2023/03/29 03:33:30;;;;;;;1.90;1.20;;;12.60;27.20;;;;;;4953619;28;20826;-69
2023/03/29 03:36:05;;;;;;;1.90;1.10;;;12.60;27.40;;;;;;4953683;28;20416;-66
2023/03/29 03:38:34;;;;;;;1.90;1.10;;;12.50;27.30;;;;;;4952565;28;20469;-66
2023/03/29 03:41:01;;;;;;;1.97;1.20;;;12.50;27.00;;;;;;4953647;28;20424;-66
2023/03/29 03:43:27;;;;;;;1.90;1.17;;;12.20;27.10;;;;;;4953435;29;20506;-66
2023/03/29 03:45:54;;;;;;;2.00;1.20;;;12.50;28.00;;;;;;4953019;29;20434;-66
2023/03/29 03:48:20;;;;;;;2.30;1.50;;;11.80;28.00;;;;;;4950268;28;21249;-66
2023/03/29 03:50:51;;;;;;;2.10;1.30;;;11.70;27.60;;;;;;4964647;28;20466;-65
2023/03/29 03:53:17;;;;;;;2.00;1.20;;;11.70;27.40;;;;;;4960300;28;20446;-68
2023/03/29 03:55:48;;;;;;;2.27;1.43;;;11.50;27.70;;;;;;4959440;28;20434;-68
2023/03/29 03:58:13;;;;;;;1.90;1.20;;;11.40;27.80;;;;;;4972333;28;20469;-68
2023/03/29 04:00:40;;;;;;;2.07;1.30;;;11.50;28.10;;;;;;4950974;28;20442;-68
2023/03/29 04:03:06;;;;;;;1.80;1.20;;;11.70;27.60;;;;;;4952162;29;20179;-68
2023/03/29 04:05:32;;;;;;;2.00;1.20;;;12.00;26.80;;;;;;4946212;28;20802;-68
2023/03/29 04:07:59;;;;;;;2.00;1.20;;;12.30;26.00;;;;;;4974395;28;20241;-68
2023/03/29 04:10:24;;;;;;;2.00;1.20;;;12.30;26.00;;;;;;4947591;28;20442;-68
2023/03/29 04:12:50;;;;;;;2.00;1.30;;;12.10;27.50;;;;;;4966411;28;20433;-69
2023/03/29 04:15:16;;;;;;;2.10;1.30;;;12.50;27.00;;;;;;4963082;28;20210;-71
2023/03/29 04:17:42;;;;;;;1.90;1.13;;;11.80;27.00;;;;;;4938665;28;20204;-68
2023/03/29 04:20:12;;;;;;;2.00;1.10;;;11.60;28.00;;;;;;4961443;28;20456;-68
2023/03/29 04:22:38;;;;;;;2.00;1.20;;;11.20;27.70;;;;;;4967088;28;21006;-68
2023/03/29 04:25:05;;;;;;;2.00;1.20;;;11.20;28.50;;;;;;4960517;28;20465;-68
2023/03/29 04:27:31;;;;;;;1.90;1.10;;;11.40;28.30;;;;;;4954675;28;20561;-68
2023/03/29 04:29:57;;;;;;;2.10;1.30;;;11.70;27.30;;;;;;4946633;28;21161;-68
2023/03/29 04:32:23;;;;;;;2.10;1.20;;;11.70;27.40;;;;;;4963851;28;20591;-68
2023/03/29 04:34:49;;;;;;;2.00;1.20;;;11.70;28.50;;;;;;4960133;28;20270;-68
2023/03/29 04:37:15;;;;;;;1.90;1.10;;;12.10;26.40;;;;;;4963143;28;20545;-68
2023/03/29 04:39:41;;;;;;;2.53;1.57;;;12.80;25.80;;;;;;4942739;28;20184;-68
2023/03/29 04:42:07;;;;;;;1.93;1.20;;;13.10;26.80;;;;;;4945391;28;20431;-68
2023/03/29 04:44:33;;;;;;;2.40;1.30;;;12.60;27.50;;;;;;4977399;28;20446;-68
2023/03/29 04:47:00;;;;;;;2.00;1.20;;;11.90;27.30;;;;;;4962710;28;20497;-68
2023/03/29 04:49:25;;;;;;;1.90;1.10;;;12.00;26.50;;;;;;4961332;28;20892;-71
2023/03/29 04:51:52;;;;;;;2.00;1.30;;;12.10;26.30;;;;;;4965172;28;20513;-70
2023/03/29 04:54:17;;;;;;;1.80;1.10;;;11.50;27.40;;;;;;4969753;28;20169;-71
2023/03/29 04:56:43;;;;;;;1.90;1.20;;;11.40;27.70;;;;;;4965823;28;20429;-69
2023/03/29 04:59:09;;;;;;;2.30;1.40;;;12.20;28.10;;;;;;4963905;28;20175;-68
2023/03/29 05:01:34;;;;;;;2.00;1.23;;;12.20;28.40;;;;;;4956990;28;20179;-68
2023/03/29 05:04:01;;;;;;;2.10;1.30;;;12.70;27.40;;;;;;4947079;28;20203;-69
2023/03/29 05:06:28;;;;;;;1.90;1.10;;;12.20;28.60;;;;;;4968840;28;20458;-69
2023/03/29 05:08:54;;;;;;;1.93;1.20;;;12.50;28.20;;;;;;4970889;28;20456;-68
2023/03/29 05:11:20;;;;;;;2.00;1.20;;;12.70;28.30;;;;;;4971547;28;20452;-68
2023/03/29 05:13:45;;;;;;;1.90;1.10;;;12.50;28.10;;;;;;4961469;28;20487;-67
2023/03/29 05:16:11;;;;;;;1.90;1.10;;;12.00;28.50;;;;;;4952509;29;20820;-68
2023/03/29 05:18:36;;;;;;;1.90;1.10;;;11.60;29.30;;;;;;4956137;29;20196;-68
2023/03/29 05:21:03;;;;;;;1.93;1.23;;;11.00;30.00;;;;;;4956217;28;20195;-68
2023/03/29 05:23:28;;;;;;;1.90;1.20;;;11.50;29.50;;;;;;4955811;28;20547;-70
2023/03/29 05:25:54;;;;;;;2.00;1.20;;;11.80;29.30;;;;;;4955219;28;20427;-67
2023/03/29 05:28:20;;;;;;;1.90;1.10;;;12.10;29.00;;;;;;4954536;28;20222;-68
2023/03/29 05:30:47;;;;;;;1.80;1.10;;;12.10;29.60;;;;;;4937099;29;20176;-68
2023/03/29 05:33:15;;;;;;;1.87;1.10;;;12.10;29.00;;;;;;4936661;29;20502;-73
2023/03/29 05:35:40;;;;;;;1.90;1.20;;;12.00;31.00;;;;;;4939387;29;20983;-71
2023/03/29 05:38:06;;;;;;;1.90;1.10;;;12.00;29.70;;;;;;4951331;29;20533;-68
2023/03/29 05:40:32;;;;;;;2.07;1.30;;;12.60;28.60;;;;;;4962563;28;20702;-68
2023/03/29 05:43:00;;;;;;;2.10;1.40;;;13.20;28.10;;;;;;4946586;28;20298;-68
2023/03/29 05:45:28;;;;;;;1.97;1.30;;;13.40;28.20;;;;;;4948986;28;20444;-68
2023/03/29 05:47:54;;;;;;;1.90;1.20;;;13.20;29.30;;;;;;4952376;28;20465;-68
2023/03/29 05:50:19;;;;;;;1.80;1.10;;;13.20;29.70;;;;;;4963206;28;20526;-68
2023/03/29 05:52:46;;;;;;;1.87;1.17;;;13.20;29.30;;;;;;4964871;28;20827;-71
2023/03/29 05:55:12;;;;;;;2.47;1.40;;;13.10;29.40;;;;;;4954002;28;20683;-68
2023/03/29 05:57:38;;;;;;;1.83;1.17;;;13.10;29.20;;;;;;4947218;28;20480;-68
2023/03/29 06:02:59;;;;;;;2.00;1.30;;;13.20;27.70;;;;;;4911113;29;20222;-68
2023/03/29 06:05:26;;;;;;;1.90;1.20;;;13.00;27.90;;;;;;4917575;29;20495;-74
2023/03/29 06:07:52;;;;;;;2.27;1.50;;;13.20;26.60;;;;;;4910144;29;20736;-69
2023/03/29 06:10:19;;;;;;;2.00;1.30;;;13.30;25.40;;;;;;4912332;29;20447;-71
2023/03/29 06:12:45;;;;;;;1.90;1.10;;;13.50;26.60;;;;;;4914566;29;20278;-65
2023/03/29 06:15:12;;;;;;;1.90;1.17;;;13.70;25.70;;;;;;4920554;29;20440;-70
2023/03/29 06:17:38;;;;;;;2.10;1.30;;;13.70;25.90;;;;;;4918934;29;20468;-65
2023/03/29 06:20:09;;;;;;;2.03;1.30;;;13.80;25.10;;;;;;4924264;29;20456;-65
2023/03/29 06:22:38;;;;;;;2.40;1.47;;;14.10;24.80;;;;;;4933505;29;20604;-65
2023/03/29 06:25:05;;;;;;;2.07;1.30;;;14.20;26.30;;;;;;4925903;29;20920;-68
2023/03/29 06:27:31;;;;;;;2.00;1.23;;;14.10;24.00;;;;;;4920133;29;20884;-71
2023/03/29 06:29:58;;;;;;;2.10;1.30;;;14.00;24.50;;;;;;4912225;29;20498;-65
2023/03/29 06:32:24;;;;;;;2.00;1.33;;;14.40;24.30;;;;;;4920436;29;20445;-68
2023/03/29 06:34:50;;;;;;;2.10;1.30;;;13.80;24.80;;;;;;4914521;29;20455;-65
2023/03/29 06:37:16;;;;;;;1.90;1.20;;;13.50;25.60;;;;;;4925146;29;20538;-66
2023/03/29 06:39:42;;;;;;;2.00;1.20;;;13.70;25.10;;;;;;4939692;28;20451;-65
2023/03/29 06:42:08;;;;;;;2.03;1.30;;;14.20;24.40;;;;;;4947815;28;20967;-66
2023/03/29 06:44:34;;;;;;;1.90;1.20;;;14.50;24.40;;;;;;4952435;28;20449;-66
2023/03/29 06:47:00;;;;;;;1.90;1.10;;;14.50;25.00;;;;;;4953534;28;20488;-68
2023/03/29 06:49:26;;;;;;;2.00;1.30;;;14.50;23.60;;;;;;4951203;28;20216;-68
2023/03/29 06:51:52;;;;;;;1.90;1.20;;;14.60;23.90;;;;;;4955894;28;20450;-68
2023/03/29 06:54:18;;;;;;;2.00;1.30;;;14.60;23.70;;;;;;4950170;28;20452;-67
2023/03/29 06:56:46;;;;;;;1.90;1.20;;;14.30;23.80;;;;;;4964102;28;20441;-70
2023/03/29 06:59:12;;;;;;;2.30;1.60;;;14.20;24.40;;;;;;4954440;28;20672;-68
2023/03/29 07:01:38;;;;;;;1.90;1.23;;;14.60;24.00;;;;;;4946903;28;20432;-68
2023/03/29 07:04:07;;;;;;;1.90;1.20;;;14.50;23.40;;;;;;4948778;28;20435;-69
2023/03/29 07:06:35;;;;;;;2.00;1.30;;;14.30;23.80;;;;;;4946856;28;20182;-70
2023/03/29 07:09:01;;;;;;;1.90;1.30;;;14.40;25.80;;;;;;4945750;28;20501;-68
2023/03/29 07:11:27;;;;;;;1.80;1.20;;;15.20;22.90;;;;;;4958551;28;20821;-70
2023/03/29 07:13:54;;;;;;;2.40;1.60;;;15.50;23.80;;;;;;4954028;28;20511;-69
2023/03/29 07:16:19;;;;;;;1.80;1.10;;;15.40;24.50;;;;;;4958957;28;20482;-76
2023/03/29 07:18:45;;;;;;;2.10;1.40;;;15.10;25.20;;;;;;4952776;28;20461;-77
2023/03/29 07:21:12;;;;;;;1.87;1.20;;;15.00;24.50;;;;;;4960675;28;20198;-77
2023/03/29 07:23:38;;;;;;;1.90;1.27;;;15.00;25.10;;;;;;4961110;28;20463;-76
2023/03/29 07:26:06;;;;;;;2.10;1.40;;;15.20;23.80;;;;;;4965263;28;20429;-76
2023/03/29 07:28:33;;;;;;;1.90;1.20;;;15.50;25.20;;;;;;4969856;28;20463;-71
2023/03/29 07:31:04;;;;;;;1.90;1.23;;;15.80;24.80;;;;;;4949756;29;20442;-71
2023/03/29 07:33:29;;;;;;;1.90;1.20;;;16.00;21.10;;;;;;4951187;28;20501;-74
2023/03/29 07:35:56;;;;;;;1.90;1.30;;;16.20;20.40;;;;;;4961710;28;20893;-71
2023/03/29 07:38:21;;;;;;;1.97;1.30;;;16.40;21.30;;;;;;4953853;28;20555;-71
2023/03/29 07:40:47;;;;;;;1.90;1.20;;;16.60;20.80;;;;;;4949228;28;20454;-71
2023/03/29 07:43:12;;;;;;;2.10;1.30;;;16.40;20.20;;;;;;4961308;28;20218;-74
2023/03/29 07:45:41;;;;;;;1.83;1.20;;;15.60;20.60;;;;;;4946865;28;20203;-71
2023/03/29 07:48:07;;;;;;;1.80;1.20;;;15.20;22.30;;;;;;4951159;28;20553;-71
2023/03/29 07:50:32;;;;;;;1.90;1.30;;;15.40;21.50;;;;;;4951715;28;20486;-71
2023/03/29 07:53:00;;;;;;;1.80;1.20;;;15.10;22.40;;;;;;4946863;28;20809;-70
2023/03/29 07:55:25;;;;;;;1.80;1.20;;;14.60;22.20;;;;;;4950714;28;20184;-68
2023/03/29 07:57:52;;;;;;;2.40;1.40;;;14.40;23.40;;;;;;4953338;28;20483;-68
2023/03/29 08:00:18;;;;;;;1.90;1.30;;;14.60;23.10;;;;;;4952109;28;20639;-68
2023/03/29 08:02:49;;;;;;;1.97;1.23;;;14.30;23.50;;;;;;4964320;28;20455;-73
2023/03/29 08:05:16;;;;;;;1.93;1.33;;;14.20;23.30;;;;;;4947232;28;20504;-68
2023/03/29 08:07:43;;;;;;;2.30;1.33;;;14.40;23.80;;;;;;4941760;28;20474;-68
2023/03/29 08:10:20;;;;;;;1.83;1.20;;;14.80;22.40;;;;;;4947319;28;20523;-69
2023/03/29 08:12:47;;;;;;;2.00;1.30;;;15.20;22.30;;;;;;4953874;28;20894;-68
2023/03/29 08:15:14;;;;;;;1.83;1.17;;;15.60;22.00;;;;;;4952539;28;20477;-68
2023/03/29 08:17:40;;;;;;;1.90;1.20;;;16.10;21.50;;;;;;4950576;29;20451;-68
2023/03/29 08:20:09;;;;;;;2.00;1.30;;;16.50;20.10;;;;;;4948539;28;20471;-73
2023/03/29 08:22:35;;;;;;;1.80;1.20;;;16.70;19.80;;;;;;4963629;28;20816;-69
2023/03/29 08:25:03;;;;;;;1.90;1.30;;;16.70;20.50;;;;;;4961006;28;20438;-68
2023/03/29 08:27:29;;;;;;;1.90;1.30;;;16.90;19.30;;;;;;4956574;28;20524;-68
2023/03/29 08:29:54;;;;;;;2.00;1.40;;;16.90;20.80;;;;;;4955238;28;20501;-68
2023/03/29 08:32:20;;;;;;;1.90;1.23;;;16.90;19.60;;;;;;4967664;28;20425;-67
2023/03/29 08:34:46;;;;;;;1.90;1.20;;;16.60;20.20;;;;;;4952882;28;20265;-68
2023/03/29 08:37:12;;;;;;;2.00;1.40;;;16.80;20.30;;;;;;4965915;28;20611;-67
2023/03/29 08:39:38;;;;;;;1.80;1.20;;;16.90;20.20;;;;;;4953625;28;20442;-66
2023/03/29 08:42:22;;;;;;;1.70;1.10;;;16.60;20.20;;;;;;4966153;28;20444;-68
2023/03/29 08:45:28;;;;;;;1.87;1.20;;;16.30;22.20;;;;;;4953651;28;20534;-70
2023/03/29 08:48:17;;;;;;;1.87;1.27;;;16.40;20.70;;;;;;4957346;28;20481;-70
2023/03/29 08:50:49;;;;;;;1.80;1.20;;;16.80;21.20;;;;;;4948569;28;20998;-69
2023/03/29 08:53:24;;;;;;;1.87;1.30;;;16.60;21.40;;;;;;4955131;28;20441;-69
2023/03/29 08:55:53;;;;;;;1.90;1.20;;;16.40;21.30;;;;;;4966910;28;20428;-71
2023/03/29 08:58:26;;;;;;;2.07;1.43;;;16.40;23.00;;;;;;5012021;23;20490;-69
2023/03/29 09:01:00;;;;;;;1.80;1.20;;;16.80;20.70;;;;;;4987643;28;20425;-69
2023/03/29 09:03:30;;;;;;;1.83;1.20;;;16.90;20.80;;;;;;4998447;28;20434;-69
2023/03/29 09:06:06;;;;;;;1.80;1.20;;;16.70;21.60;;;;;;4990476;28;20878;-69
2023/03/29 09:08:45;;;;;;;1.93;1.30;;;16.50;22.90;;;;;;5000518;28;20475;-69
2023/03/29 09:11:21;;;;;;;1.80;1.20;;;16.40;23.40;;;;;;4995955;28;20428;-69
2023/03/29 09:13:52;;;;;;;2.10;1.40;;;16.20;24.10;;;;;;4995192;28;20946;-67
2023/03/29 09:16:21;;;;;;;1.90;1.20;;;16.00;22.50;;;;;;4992924;28;20483;-69
2023/03/29 09:19:00;;;;;;;2.50;1.40;;;16.20;23.20;;;;;;4998436;28;20476;-69
2023/03/29 09:21:48;;;;;;;1.93;1.23;;;16.50;22.30;;;;;;4999156;28;20456;-68
2023/03/29 09:24:34;;;;;;;2.10;1.43;;;17.00;22.60;;;;;;5002187;28;20439;-69
2023/03/29 09:27:13;;;;;;;1.90;1.30;;;17.00;22.60;;;;;;4994503;28;20463;-68
2023/03/29 09:29:49;;;;;;;2.00;1.30;;;17.00;21.30;;;;;;5005283;28;20930;-69
2023/03/29 09:32:27;;;;;;;1.90;1.30;;;17.20;21.90;;;;;;4998472;28;20460;-68
2023/03/29 09:35:22;;;;;;;1.87;1.20;;;17.70;22.80;;;;;;4984689;28;20496;-69
2023/03/29 09:37:50;;;;;;;2.00;1.40;;;17.80;21.90;;;;;;4994950;28;20460;-69
2023/03/29 09:40:38;;;;;;;2.27;1.57;;;17.30;23.30;;;;;;4994194;28;20434;-69
2023/03/29 09:43:09;;;;;;;1.97;1.27;;;17.50;21.40;;;;;;4995770;28;20516;-69
2023/03/29 09:45:37;;;;;;;2.10;1.33;;;17.70;21.20;;;;;;4991199;28;20437;-69
2023/03/29 09:48:13;;;;;;;2.00;1.40;;;18.20;20.30;;;;;;5004976;28;20522;-68
2023/03/29 09:50:46;;;;;;;2.93;1.50;;;18.10;22.30;;;;;;4994636;28;20799;-68
2023/03/29 09:53:14;;;;;;;2.00;1.43;;;18.40;20.90;;;;;;4999289;28;20442;-68
2023/03/29 09:55:43;;;;;;;1.93;1.27;;;18.50;19.20;;;;;;5004080;28;20527;-68
2023/03/29 09:58:21;;;;;;;1.90;1.20;;;19.10;19.80;;;;;;5005309;28;20495;-67
2023/03/29 10:00:48;;;;;;;2.30;1.40;;;18.70;20.70;;;;;;4998902;28;20519;-68
2023/03/29 10:03:23;;;;;;;2.00;1.20;;;18.70;19.60;;;;;;4992465;28;20912;-68
2023/03/29 10:05:53;;;;;;;2.20;1.30;;;18.70;18.90;;;;;;4994634;28;20435;-68
2023/03/29 10:08:28;;;;;;;2.17;1.37;;;18.60;19.40;;;;;;5023912;28;20603;-67
2023/03/29 10:10:57;;;;;;;2.30;1.50;;;18.80;19.90;;;;;;5008861;28;20856;-68
2023/03/29 10:13:29;;;;;;;2.30;1.20;;;18.70;18.70;;;;;;4993364;28;20515;-67
2023/03/29 10:16:00;;;;;;;2.10;1.20;;;19.60;17.70;;;;;;4996971;28;20430;-68
2023/03/29 10:18:26;;;;;;;2.27;1.30;;;19.90;17.60;;;;;;5005693;28;20771;-68
2023/03/29 10:21:02;;;;;;;2.30;1.23;;;19.70;17.70;;;;;;5010277;28;20415;-69
2023/03/29 10:23:33;;;;;;;2.40;1.40;;;18.50;18.90;;;;;;5002519;28;20542;-69
2023/03/29 10:26:03;;;;;;;2.20;1.27;;;18.90;18.40;;;;;;4998983;28;20996;-69
2023/03/29 10:28:29;;;;;;;2.30;1.40;;;18.70;19.60;;;;;;5003024;28;20473;-69
2023/03/29 10:30:58;;;;;;;2.27;1.40;;;19.30;18.20;;;;;;4992907;28;20789;-70
2023/03/29 10:33:30;;;;;;;2.60;1.53;;;18.80;17.40;;;;;;5001909;28;20563;-69
2023/03/29 10:35:57;;;;;;;3.07;1.50;;;18.50;19.70;;;;;;4999768;28;20406;-69
2023/03/29 10:38:27;;;;;;;2.50;1.30;;;19.00;19.20;;;;;;4993056;28;20430;-68
2023/03/29 10:40:54;;;;;;;2.40;1.30;;;20.20;18.40;;;;;;4992414;28;20446;-69
2023/03/29 10:43:28;;;;;;;2.40;1.20;;;18.60;18.20;;;;;;5008162;28;20422;-69
2023/03/29 10:46:03;;;;;;;2.50;1.30;;;19.30;18.70;;;;;;4993491;28;20404;-70
2023/03/29 10:48:30;;;;;;;2.70;1.40;;;19.60;19.30;;;;;;4993305;28;20908;-69
2023/03/29 10:51:04;;;;;;;3.00;1.50;;;20.20;17.50;;;;;;4998094;28;20430;-70
2023/03/29 10:53:36;;;;;;;2.70;1.27;;;20.20;16.70;;;;;;5001739;28;21006;-69
2023/03/29 10:56:21;;;;;;;2.83;1.30;;;20.50;16.70;;;;;;5003212;28;20483;-69
2023/03/29 10:59:07;;;;;;;3.13;1.43;;;19.50;17.70;;;;;;5004726;28;20529;-69
2023/03/29 11:01:50;;;;;;;3.00;1.40;;;18.80;18.40;;;;;;4994053;28;20799;-68
2023/03/29 11:04:37;;;;;;;2.80;1.20;;;18.20;17.70;;;;;;4998180;28;20427;-69
2023/03/29 11:07:38;;;;;;;2.83;1.30;;;17.50;18.70;;;;;;4995912;28;20422;-69
2023/03/29 11:10:48;;;;;;;2.80;1.30;;;17.40;18.80;;;;;;4951795;29;20419;-69
2023/03/29 11:13:31;;;;;;;2.70;1.30;;;17.70;18.80;;;;;;4967246;28;20910;-69
2023/03/29 11:16:16;;;;;;;2.70;1.40;;;17.50;19.00;;;;;;4998748;28;20664;-69
2023/03/29 11:19:09;;;;;;;2.53;1.40;;;17.10;19.40;;;;;;4973885;28;20804;-69
2023/03/29 11:21:41;;;;;;;2.50;1.20;;;17.90;18.00;;;;;;4973705;28;20971;-68
2023/03/29 11:24:15;;;;;;;2.53;1.20;;;18.10;18.50;;;;;;4991544;28;20468;-69
2023/03/29 11:26:41;;;;;;;2.60;1.30;;;18.80;18.00;;;;;;4989414;28;20429;-68
2023/03/29 11:29:21;;;;;;;2.93;1.40;;;17.70;18.40;;;;;;4996862;28;20559;-68
2023/03/29 11:32:12;;;;;;;2.50;1.20;;;18.30;18.00;;;;;;4992459;28;20460;-69
2023/03/29 11:35:10;;;;;;;2.80;1.40;;;18.80;16.70;;;;;;4991606;28;20433;-68
2023/03/29 11:37:39;;;;;;;2.50;1.30;;;18.10;18.20;;;;;;4994388;28;20794;-68
2023/03/29 11:40:12;;;;;;;2.53;1.27;;;17.50;19.20;;;;;;5010299;28;20450;-69
2023/03/29 11:42:42;;;;;;;2.40;1.30;;;18.40;18.40;;;;;;5003006;28;20452;-68
2023/03/29 11:45:15;;;;;;;2.40;1.20;;;18.10;18.60;;;;;;5002731;28;20433;-70
2023/03/29 11:47:43;;;;;;;2.40;1.20;;;18.80;17.80;;;;;;5003850;28;20466;-69
2023/03/29 11:50:21;;;;;;;2.57;1.30;;;18.20;18.10;;;;;;4995613;28;20429;-69
2023/03/29 11:52:57;;;;;;;2.80;1.50;;;17.10;19.50;;;;;;4986380;28;20820;-71
2023/03/29 11:55:32;;;;;;;3.20;1.70;;;17.70;19.60;;;;;;4987345;28;20433;-69
2023/03/29 11:58:06;;;;;;;2.40;1.20;;;17.80;19.10;;;;;;4988585;28;20545;-69
2023/03/29 12:00:39;;;;;;;2.50;1.33;;;17.60;19.00;;;;;;4995038;28;20425;-69
2023/03/29 12:03:37;;;;;;;2.60;1.30;;;17.60;19.00;;;;;;4991902;28;20434;-69
2023/03/29 12:06:41;;;;;;;2.50;1.27;;;17.70;19.10;;;;;;4993138;28;20431;-68
2023/03/29 12:09:32;;;;;;;2.50;1.30;;;17.60;19.10;;;;;;4995493;28;20479;-68
2023/03/29 12:12:14;;;;;;;2.50;1.23;;;17.20;19.50;;;;;;4989257;28;20963;-69
2023/03/29 12:14:53;;;;;;;3.07;1.93;;;17.60;19.20;;;;;;4991423;28;20432;-69
2023/03/29 12:17:26;;;;;;;2.40;1.20;;;18.40;18.90;;;;;;4998498;28;21041;-69
2023/03/29 12:20:16;;;;;;;2.60;1.30;;;18.70;18.30;;;;;;5003489;28;20494;-69
2023/03/29 12:22:45;;;;;;;2.60;1.37;;;19.50;17.50;;;;;;4992153;28;20394;-69
2023/03/29 12:25:16;;;;;;;2.90;1.67;;;20.10;16.80;;;;;;5001594;28;20425;-69
2023/03/29 12:28:22;;;;;;;2.40;1.10;;;18.80;18.30;;;;;;4973589;28;20474;-69
2023/03/29 12:31:08;;;;;;;2.60;1.30;;;18.60;18.80;;;;;;4946879;29;20457;-69
2023/03/29 12:34:02;;;;;;;2.60;1.30;;;18.10;19.20;;;;;;4931459;29;20983;-69
2023/03/29 12:36:54;;;;;;;2.60;1.30;;;17.70;20.00;;;;;;4932685;28;20435;-70
2023/03/29 12:39:21;;;;;;;2.50;1.20;;;18.10;19.50;;;;;;4945133;28;20530;-69
2023/03/29 12:41:52;;;;;;;2.57;1.40;;;18.10;19.50;;;;;;4935366;29;20451;-69
2023/03/29 12:44:22;;;;;;;2.50;1.27;;;18.50;19.90;;;;;;4933293;29;20771;-69
2023/03/29 12:46:56;;;;;;;2.50;1.17;;;18.90;19.00;;;;;;4930516;29;20927;-69
2023/03/29 12:49:32;;;;;;;2.50;1.20;;;19.10;19.80;;;;;;4934379;28;20481;-70
2023/03/29 12:52:00;;;;;;;2.60;1.30;;;18.60;20.30;;;;;;4949282;29;20499;-70
2023/03/29 12:54:31;;;;;;;2.60;1.30;;;18.80;19.30;;;;;;4947019;29;20444;-69
2023/03/29 12:57:17;;;;;;;2.40;1.20;;;18.80;19.40;;;;;;4949662;29;20412;-69
2023/03/29 12:59:46;;;;;;;2.53;1.20;;;18.80;19.30;;;;;;4949509;29;20454;-69
2023/03/29 13:02:12;;;;;;;2.60;1.20;;;18.90;19.00;;;;;;4936437;28;20489;-69
2023/03/29 13:05:00;;;;;;;2.70;1.30;;;19.70;18.60;;;;;;4953286;29;20452;-69
2023/03/29 13:07:45;;;;;;;2.60;1.20;;;19.70;18.10;;;;;;4993537;28;20482;-69
2023/03/29 13:10:38;;;;;;;2.70;1.30;;;19.50;18.90;;;;;;4994190;28;20498;-69
2023/03/29 13:13:13;;;;;;;2.50;1.13;;;18.80;18.90;;;;;;4996214;28;20418;-69